Time;durP1;ratioP1;P1;durP2;ratioP2;P2;SDS_P1;SDS_P2;PMS_P1;PMS_P2;Temp;Humidity;BMP_temperature;BMP_pressure;BME280_temperature;BME280_humidity;BME280_pressure;Samples;Min_cycle;Max_cycle;Signal;HPM_P1;HPM_P2
2021/12/10 00:00:41;;;;;;;6.90;2.13;;;;;;;4.49;84.56;98977.19;4972731;28;20088;-95
2021/12/10 00:03:15;;;;;;;12.85;2.75;;;;;;;4.51;84.75;98974.91;4970337;28;20035;-95
2021/12/10 00:05:49;;;;;;;7.75;2.13;;;;;;;4.50;84.85;98967.84;4953794;28;20093;-95
2021/12/10 00:08:18;;;;;;;12.07;3.83;;;;;;;4.49;84.85;98968.97;4951068;28;20812;-94
2021/12/10 00:10:48;;;;;;;9.88;3.20;;;;;;;4.44;84.95;98966.50;4938890;28;20043;-93
2021/12/10 00:13:16;;;;;;;16.20;3.60;;;;;;;4.43;84.71;98970.38;4956399;28;20035;-94
2021/12/10 00:15:44;;;;;;;14.00;3.38;;;;;;;4.37;84.83;98971.78;4955846;28;20487;-94
2021/12/10 00:18:15;;;;;;;8.48;2.10;;;;;;;4.29;84.68;98977.03;4939624;28;20801;-94
2021/12/10 00:20:45;;;;;;;7.85;1.80;;;;;;;4.25;85.03;98980.81;4954875;28;20049;-94
2021/12/10 00:23:19;;;;;;;10.68;3.42;;;;;;;4.23;84.57;98983.09;4954319;28;20047;-94
2021/12/10 00:25:50;;;;;;;13.77;2.80;;;;;;;4.16;85.23;98989.16;4955065;28;20054;-94
2021/12/10 00:28:23;;;;;;;12.23;2.38;;;;;;;4.11;85.19;98991.31;4947908;28;20468;-93
2021/12/10 00:31:16;;;;;;;6.78;2.58;;;;;;;4.08;85.26;98992.81;4938062;28;20066;-95
2021/12/10 00:34:15;;;;;;;9.43;2.50;;;;;;;4.05;85.00;99003.69;4955390;28;20134;-93
2021/12/10 00:36:44;;;;;;;12.73;2.30;;;;;;;4.02;84.98;99015.31;4938971;28;20050;-93
2021/12/10 00:39:25;;;;;;;10.77;2.10;;;;;;;3.97;84.99;99021.03;4952865;28;20492;-94
2021/12/10 00:41:53;;;;;;;12.60;2.03;;;;;;;3.94;84.79;99024.44;4955665;28;20035;-93
2021/12/10 00:44:21;;;;;;;12.27;2.70;;;;;;;3.89;85.25;99032.91;4969516;28;20031;-93
2021/12/10 00:46:48;;;;;;;7.93;1.63;;;;;;;3.83;84.89;99018.63;4954346;28;20108;-95
2021/12/10 00:49:15;;;;;;;5.57;1.50;;;;;;;3.80;85.16;99013.03;4953001;28;20051;-94
2021/12/10 00:51:42;;;;;;;9.25;2.25;;;;;;;3.77;85.00;99030.94;4937263;28;20066;-95
2021/12/10 00:54:11;;;;;;;6.80;1.85;;;;;;;3.73;85.00;99019.09;4970193;28;20470;-94
2021/12/10 00:56:41;;;;;;;14.45;2.15;;;;;;;3.73;85.07;99023.75;4953773;28;20491;-94
2021/12/10 00:59:12;;;;;;;15.15;2.95;;;;;;;3.68;84.97;99039.25;4963745;28;20110;-95
2021/12/10 01:01:41;;;;;;;12.00;1.95;;;;;;;3.64;85.02;99035.63;4954135;28;20420;-94
2021/12/10 01:04:22;;;;;;;8.70;2.80;;;;;;;3.61;85.39;99038.22;4931994;28;20055;-94
2021/12/10 01:06:51;;;;;;;9.82;1.50;;;;;;;3.58;85.11;99045.19;4954716;28;20035;-95
2021/12/10 01:09:27;;;;;;;8.88;3.78;;;;;;;3.55;85.26;99047.78;4950881;28;20059;-94
2021/12/10 01:12:03;;;;;;;12.13;2.65;;;;;;;3.53;84.96;99036.41;4935600;28;20200;-94
2021/12/10 01:28:51;;;;;;;16.05;3.15;;;;;;;3.67;85.66;99066.97;4963989;28;20039;-95
2021/12/10 01:31:18;;;;;;;;;;;;;;;3.67;86.13;99080.66;4938971;28;20102;-95
2021/12/10 01:33:46;;;;;;;16.30;4.65;;;;;;;3.72;85.57;99085.91;4953477;28;19918;-95
2021/12/10 01:36:13;;;;;;;8.90;1.95;;;;;;;3.75;86.06;99093.44;4937814;28;20471;-94
2021/12/10 01:38:44;;;;;;;10.95;2.28;;;;;;;3.69;86.06;99083.84;4938210;28;20049;-94
2021/12/10 01:41:16;;;;;;;9.75;1.73;;;;;;;3.73;86.04;99078.50;4933263;28;20043;-95
2021/12/10 01:43:47;;;;;;;7.43;2.00;;;;;;;3.76;86.04;99088.78;4938810;28;20054;-95
2021/12/10 01:46:25;;;;;;;6.63;1.60;;;;;;;3.71;85.77;99086.25;4947696;28;20042;-95
2021/12/10 01:48:59;;;;;;;6.50;2.28;;;;;;;3.66;85.87;99081.78;4966025;28;20051;-95
2021/12/10 01:51:30;;;;;;;10.48;2.22;;;;;;;3.62;85.78;99089.09;4945568;28;20047;-94
2021/12/10 01:54:02;;;;;;;7.20;2.15;;;;;;;3.60;85.79;99102.31;4947778;28;20046;-95
2021/12/10 01:56:31;;;;;;;9.25;2.70;;;;;;;3.55;85.47;99089.63;4938227;28;20138;-94
2021/12/10 01:59:01;;;;;;;6.20;1.55;;;;;;;3.50;85.31;99100.00;4949700;28;20050;-94
2021/12/10 02:01:35;;;;;;;7.70;1.88;;;;;;;3.47;85.66;99097.94;4955918;28;20070;-94
2021/12/10 02:04:05;;;;;;;6.35;1.67;;;;;;;3.43;85.36;99102.50;4967720;28;20086;-94
2021/12/10 02:06:32;;;;;;;10.23;1.92;;;;;;;3.43;85.18;99105.22;4957161;28;20142;-94
2021/12/10 02:08:59;;;;;;;10.43;2.38;;;;;;;3.35;84.98;99106.91;4969316;28;20035;-94
2021/12/10 02:11:27;;;;;;;10.57;1.88;;;;;;;3.34;85.19;99099.84;4970311;28;20047;-93
2021/12/10 02:13:53;;;;;;;13.85;2.53;;;;;;;3.27;85.18;99096.06;4970094;28;20089;-94
2021/12/10 02:16:20;;;;;;;12.38;1.83;;;;;;;3.22;85.01;99096.28;4955329;28;20463;-94
2021/12/10 02:18:49;;;;;;;6.45;1.65;;;;;;;3.17;85.33;99100.03;4947783;28;20050;-94
2021/12/10 02:21:21;;;;;;;7.75;1.40;;;;;;;3.17;85.17;99100.03;4971427;28;20097;-94
2021/12/10 02:23:57;;;;;;;16.13;2.08;;;;;;;3.11;85.28;99095.88;4950274;28;20046;-94
2021/12/10 02:26:34;;;;;;;6.05;1.63;;;;;;;3.06;85.22;99107.84;4971180;28;20038;-94
2021/12/10 02:29:05;;;;;;;7.80;2.00;;;;;;;3.05;85.39;99106.22;4966437;28;20047;-94
2021/12/10 02:31:32;;;;;;;10.13;3.67;;;;;;;3.02;85.27;99120.56;4986765;28;20074;-93
2021/12/10 02:34:01;;;;;;;3.92;1.42;;;;;;;3.02;85.52;99108.81;4973650;28;20054;-94
2021/12/10 02:36:29;;;;;;;6.30;1.33;;;;;;;3.00;85.09;99111.91;4967458;28;20071;-93
2021/12/10 02:38:57;;;;;;;4.05;1.63;;;;;;;2.96;85.35;99127.41;4952781;28;20126;-94
2021/12/10 02:41:29;;;;;;;7.00;1.50;;;;;;;2.92;85.35;99125.63;4969820;28;20037;-94
2021/12/10 02:43:58;;;;;;;4.93;1.23;;;;;;;2.91;85.40;99108.44;4966381;28;20531;-93
2021/12/10 02:46:26;;;;;;;6.80;2.28;;;;;;;2.91;85.35;99127.56;4950102;28;20074;-95
2021/12/10 02:48:54;;;;;;;4.47;1.60;;;;;;;2.88;85.44;99122.00;4952100;28;20487;-93
2021/12/10 02:51:22;;;;;;;8.30;2.00;;;;;;;2.87;85.27;99123.91;4954521;28;20044;-93
2021/12/10 02:53:49;;;;;;;7.72;2.28;;;;;;;2.87;85.20;99117.66;4952642;28;20045;-94
2021/12/10 02:56:20;;;;;;;9.00;1.60;;;;;;;2.82;85.06;99132.31;4981948;28;20105;-94
2021/12/10 02:58:50;;;;;;;6.53;1.65;;;;;;;2.78;85.44;99131.38;4966630;28;20050;-92
2021/12/10 03:01:27;;;;;;;6.10;1.77;;;;;;;2.77;85.39;99118.06;4966075;28;20089;-93
2021/12/10 03:03:55;;;;;;;10.57;1.70;;;;;;;2.74;85.38;99135.91;4967326;28;20049;-94
2021/12/10 03:06:22;;;;;;;5.20;1.17;;;;;;;2.68;85.25;99141.91;4946148;28;20053;-94
2021/12/10 03:08:51;;;;;;;7.18;1.48;;;;;;;2.67;85.38;99141.13;4970501;28;20042;-94
2021/12/10 03:11:22;;;;;;;4.45;1.30;;;;;;;2.67;85.23;99140.31;4949193;28;20093;-93
2021/12/10 03:13:50;;;;;;;2.00;0.95;;;;;;;2.66;85.08;99153.16;4983535;28;20070;-92
2021/12/10 03:16:17;;;;;;;4.65;1.13;;;;;;;2.65;85.08;99158.97;4967865;28;20438;-93
2021/12/10 03:18:45;;;;;;;9.13;2.33;;;;;;;2.62;84.90;99152.22;4946972;28;20074;-93
2021/12/10 03:21:12;;;;;;;3.20;1.08;;;;;;;2.63;85.14;99172.13;4972198;28;20541;-94
2021/12/10 03:23:43;;;;;;;5.82;0.63;;;;;;;2.59;85.04;99172.03;4967565;28;20066;-94
2021/12/10 03:26:18;;;;;;;2.83;0.75;;;;;;;2.55;84.72;99170.25;4965293;28;20383;-94
2021/12/10 03:28:46;;;;;;;2.60;0.90;;;;;;;2.54;84.81;99169.47;4969643;28;20066;-93
2021/12/10 03:31:14;;;;;;;4.80;0.73;;;;;;;2.53;84.94;99167.06;4970372;28;20038;-93
2021/12/10 03:33:42;;;;;;;5.35;0.80;;;;;;;2.52;85.08;99170.91;4970325;28;20089;-93
2021/12/10 03:36:09;;;;;;;1.50;0.63;;;;;;;2.45;84.91;99179.66;4981413;28;20136;-94
2021/12/10 03:38:39;;;;;;;5.22;1.30;;;;;;;2.43;85.02;99190.09;4951706;28;20065;-94
2021/12/10 03:41:09;;;;;;;2.80;0.80;;;;;;;2.40;85.19;99201.69;4970069;28;20081;-93
2021/12/10 03:43:38;;;;;;;2.85;0.55;;;;;;;2.39;85.13;99202.81;4963830;28;20077;-93
2021/12/10 03:46:06;;;;;;;2.38;0.60;;;;;;;2.38;85.23;99203.94;4970268;28;20050;-94
2021/12/10 03:48:40;;;;;;;3.65;0.82;;;;;;;2.36;84.97;99215.19;4955531;28;20050;-93
2021/12/10 03:51:10;;;;;;;3.85;0.70;;;;;;;2.39;84.87;99211.00;4970451;28;20042;-94
2021/12/10 03:53:37;;;;;;;4.47;1.17;;;;;;;2.35;85.06;99226.44;4965749;28;20039;-93
2021/12/10 03:56:10;;;;;;;2.22;0.90;;;;;;;2.31;85.12;99237.22;4964710;28;20058;-93
2021/12/10 03:58:38;;;;;;;4.10;0.80;;;;;;;2.30;85.22;99234.81;4953226;28;20074;-92
2021/12/10 04:01:10;;;;;;;8.00;1.00;;;;;;;2.31;85.07;99247.34;4957693;28;20062;-94
2021/12/10 04:03:38;;;;;;;3.60;0.88;;;;;;;2.32;85.08;99249.75;4973750;28;20042;-94
2021/12/10 04:06:05;;;;;;;2.67;0.63;;;;;;;2.30;85.16;99252.00;4962612;28;20051;-94
2021/12/10 04:08:34;;;;;;;2.58;0.70;;;;;;;2.29;85.33;99255.88;4966681;28;20549;-94
2021/12/10 04:11:03;;;;;;;3.92;0.95;;;;;;;2.25;85.33;99243.97;4977102;28;20055;-92
2021/12/10 04:13:30;;;;;;;1.73;0.60;;;;;;;2.24;85.60;99257.97;4966482;28;20094;-94
2021/12/10 04:15:58;;;;;;;4.20;0.75;;;;;;;2.23;85.42;99265.34;4965188;28;20050;-94
2021/12/10 04:18:25;;;;;;;2.40;0.47;;;;;;;2.24;85.67;99263.44;4977243;28;20732;-93
2021/12/10 04:20:52;;;;;;;4.30;0.55;;;;;;;2.25;85.31;99284.16;4969404;28;20130;-93
2021/12/10 04:23:21;;;;;;;2.40;0.40;;;;;;;2.21;85.92;99277.72;4982567;28;20043;-94
2021/12/10 04:25:48;;;;;;;1.05;0.47;;;;;;;2.22;85.89;99293.81;4958972;28;20058;-95
2021/12/10 04:28:18;;;;;;;2.20;0.65;;;;;;;2.21;85.38;99299.56;4981013;28;20050;-93
2021/12/10 04:30:47;;;;;;;3.05;0.50;;;;;;;2.22;85.60;99293.00;4952332;28;20085;-93
2021/12/10 04:33:17;;;;;;;6.13;0.57;;;;;;;2.19;85.37;99299.09;4962101;28;20054;-92
2021/12/10 04:35:50;;;;;;;2.55;1.23;;;;;;;2.13;85.62;99289.47;4979220;28;20050;-92
2021/12/10 04:38:19;;;;;;;6.20;1.00;;;;;;;2.12;85.81;99285.16;4969147;28;20085;-93
2021/12/10 04:40:48;;;;;;;1.75;0.63;;;;;;;2.09;85.78;99294.00;4968172;28;20053;-93
2021/12/10 04:43:18;;;;;;;0.65;0.38;;;;;;;2.07;86.03;99285.31;4979139;28;20030;-94
2021/12/10 04:45:46;;;;;;;2.35;0.60;;;;;;;2.09;85.70;99291.25;4952937;28;20046;-93
2021/12/10 04:48:13;;;;;;;2.65;0.60;;;;;;;2.09;85.43;99294.75;4956688;28;20073;-94
2021/12/10 04:50:40;;;;;;;8.32;0.60;;;;;;;2.10;85.56;99296.38;4949290;28;20069;-94
2021/12/10 04:53:10;;;;;;;4.85;0.80;;;;;;;2.09;85.88;99318.56;4979236;28;20074;-93
2021/12/10 04:55:37;;;;;;;6.18;0.50;;;;;;;2.04;86.09;99307.81;4952344;28;20047;-92
2021/12/10 04:58:05;;;;;;;1.40;0.70;;;;;;;2.03;85.76;99301.53;4974496;28;20479;-93
2021/12/10 05:00:37;;;;;;;1.75;0.50;;;;;;;2.02;85.82;99304.56;4937382;28;20066;-93
2021/12/10 05:03:06;;;;;;;1.58;0.50;;;;;;;2.00;85.88;99317.75;4946175;28;20042;-93
2021/12/10 05:05:33;;;;;;;2.90;0.63;;;;;;;1.97;85.82;99323.84;4953486;28;20039;-93
2021/12/10 05:08:04;;;;;;;2.75;0.32;;;;;;;1.92;86.09;99321.28;4954220;28;20502;-94
2021/12/10 05:10:32;;;;;;;1.38;1.10;;;;;;;1.91;86.10;99336.09;4937468;28;20051;-93
2021/12/10 05:12:59;;;;;;;4.40;0.63;;;;;;;1.91;86.01;99327.91;4946578;28;20475;-94
2021/12/10 05:15:29;;;;;;;3.03;0.60;;;;;;;1.91;85.87;99338.81;4947500;28;20049;-92
2021/12/10 05:17:57;;;;;;;4.38;0.52;;;;;;;1.90;86.29;99332.53;4932396;28;20051;-93
2021/12/10 05:20:37;;;;;;;3.33;1.20;;;;;;;1.88;85.84;99332.03;4932600;28;20126;-94
2021/12/10 05:23:04;;;;;;;0.55;0.40;;;;;;;1.89;85.98;99349.22;4934952;28;20106;-94
2021/12/10 05:25:32;;;;;;;4.43;1.27;;;;;;;1.85;85.91;99349.88;4938028;28;20038;-93
2021/12/10 05:28:00;;;;;;;0.85;0.63;;;;;;;1.83;86.11;99357.56;4949841;28;20082;-93
2021/12/10 05:30:29;;;;;;;2.40;0.30;;;;;;;1.82;86.01;99363.38;4934591;28;20043;-92
2021/12/10 05:32:57;;;;;;;2.50;0.50;;;;;;;1.80;86.21;99368.34;4950310;28;20093;-93
2021/12/10 05:35:25;;;;;;;4.00;0.60;;;;;;;1.79;86.40;99373.00;4954037;28;20490;-92
2021/12/10 05:37:51;;;;;;;3.70;0.60;;;;;;;1.80;86.41;99374.59;4948941;28;20054;-94
2021/12/10 05:40:20;;;;;;;1.52;0.70;;;;;;;1.78;86.33;99373.31;4938488;28;20054;-95
2021/12/10 05:42:47;;;;;;;5.10;0.50;;;;;;;1.77;86.56;99377.94;4951149;28;20032;-94
2021/12/10 05:45:20;;;;;;;7.70;0.70;;;;;;;1.76;86.38;99372.81;4937660;28;20382;-92
2021/12/10 05:47:48;;;;;;;2.15;0.40;;;;;;;1.79;86.50;99383.09;4936443;28;20120;-90
2021/12/10 05:50:18;;;;;;;3.63;1.20;;;;;;;1.77;86.39;99391.59;4933352;28;20043;-92
2021/12/10 05:52:45;;;;;;;3.90;0.38;;;;;;;1.79;86.30;99389.38;4946294;28;20071;-91
2021/12/10 05:55:13;;;;;;;6.20;0.68;;;;;;;1.77;86.31;99380.69;4936882;28;20043;-92
2021/12/10 05:57:41;;;;;;;0.70;0.30;;;;;;;1.76;86.69;99392.72;4939239;28;20035;-93
2021/12/10 06:00:14;;;;;;;3.28;0.73;;;;;;;1.75;86.41;99382.94;4954599;28;20050;-92
2021/12/10 06:02:41;;;;;;;3.28;0.60;;;;;;;1.77;86.68;99396.28;4966329;28;20046;-93
2021/12/10 06:05:09;;;;;;;2.22;0.43;;;;;;;1.75;86.98;99393.84;4971788;28;20054;-92
2021/12/10 06:07:38;;;;;;;2.03;0.60;;;;;;;1.76;86.78;99405.56;4955585;28;20108;-92
2021/12/10 06:10:08;;;;;;;6.20;1.67;;;;;;;1.75;86.47;99399.31;4956215;28;20133;-92
2021/12/10 06:12:35;;;;;;;3.25;0.90;;;;;;;1.77;86.99;99412.63;4961696;28;20101;-92
2021/12/10 06:15:04;;;;;;;0.50;0.22;;;;;;;1.77;86.97;99412.63;4972425;28;20042;-92
2021/12/10 06:17:32;;;;;;;1.40;0.68;;;;;;;1.74;86.80;99407.81;4948850;28;20063;-92
2021/12/10 06:20:05;;;;;;;3.55;1.13;;;;;;;1.74;86.59;99427.72;4981450;28;20039;-92
2021/12/10 06:22:32;;;;;;;3.95;0.80;;;;;;;1.74;87.09;99422.28;4969875;28;20137;-92
2021/12/10 06:24:59;;;;;;;5.75;0.50;;;;;;;1.69;87.22;99422.44;4983969;28;20051;-92
2021/12/10 06:27:27;;;;;;;2.78;0.77;;;;;;;1.70;87.09;99429.47;4968818;28;20046;-92
2021/12/10 06:29:58;;;;;;;10.98;1.90;;;;;;;1.70;87.63;99418.56;4956787;28;20042;-92
2021/12/10 06:32:26;;;;;;;4.20;0.85;;;;;;;1.73;87.42;99415.19;4966621;28;20066;-92
2021/12/10 06:34:54;;;;;;;2.42;0.90;;;;;;;1.73;87.27;99423.38;4955496;28;20054;-91
2021/12/10 06:37:22;;;;;;;8.70;1.55;;;;;;;1.74;87.28;99433.19;4954709;28;20038;-91
2021/12/10 06:39:49;;;;;;;2.25;0.55;;;;;;;1.74;87.15;99441.38;4973372;28;20043;-91
2021/12/10 06:42:16;;;;;;;4.38;0.75;;;;;;;1.73;87.48;99453.38;4968089;28;20147;-91
2021/12/10 06:45:04;;;;;;;2.13;0.80;;;;;;;1.72;87.65;99451.78;4969250;28;20089;-92
2021/12/10 06:47:31;;;;;;;9.48;3.60;;;;;;;1.72;87.19;99440.06;4966556;28;20116;-92
2021/12/10 06:49:59;;;;;;;3.85;1.42;;;;;;;1.74;87.36;99456.94;4954102;28;20047;-92
2021/12/10 06:52:26;;;;;;;2.35;0.52;;;;;;;1.73;87.11;99453.38;4938167;28;20141;-92
2021/12/10 06:54:53;;;;;;;1.75;0.82;;;;;;;1.73;87.24;99450.66;4983418;28;20058;-92
2021/12/10 06:57:20;;;;;;;2.53;0.90;;;;;;;1.71;87.21;99452.91;4956579;28;20042;-91
2021/12/10 06:59:47;;;;;;;6.05;0.98;;;;;;;1.75;87.11;99453.06;4967409;28;20065;-92
2021/12/10 07:02:14;;;;;;;1.60;0.90;;;;;;;1.75;87.46;99458.50;4953043;28;20042;-92
2021/12/10 07:04:41;;;;;;;5.65;0.88;;;;;;;1.72;87.45;99459.97;4968064;28;20121;-92
2021/12/10 07:07:13;;;;;;;5.30;1.27;;;;;;;1.71;87.36;99458.38;4952512;28;20038;-91
2021/12/10 07:09:41;;;;;;;2.35;0.98;;;;;;;1.71;87.28;99463.81;4970688;28;20037;-91
2021/12/10 07:12:08;;;;;;;4.13;1.83;;;;;;;1.71;87.71;99472.00;4974473;28;20081;-91
2021/12/10 07:14:35;;;;;;;4.88;0.55;;;;;;;1.69;87.74;99471.53;4971253;28;20046;-90
2021/12/10 07:17:03;;;;;;;2.42;0.63;;;;;;;1.71;87.76;99469.28;4970164;28;20073;-91
2021/12/10 07:19:30;;;;;;;5.43;1.02;;;;;;;1.70;87.92;99462.22;4963810;28;20049;-91
2021/12/10 07:21:57;;;;;;;6.85;0.70;;;;;;;1.70;87.95;99466.84;4955841;28;20073;-91
2021/12/10 07:24:24;;;;;;;5.63;0.85;;;;;;;1.68;87.78;99480.81;4968997;28;20046;-90
2021/12/10 07:26:51;;;;;;;1.13;0.80;;;;;;;1.67;87.90;99489.31;4948801;28;20055;-92
2021/12/10 07:29:21;;;;;;;6.00;0.85;;;;;;;1.69;87.85;99492.53;4968251;28;20475;-91
2021/12/10 07:31:48;;;;;;;3.72;0.90;;;;;;;1.66;88.10;99499.44;4972165;28;20050;-92
2021/12/10 07:34:15;;;;;;;3.40;0.77;;;;;;;1.65;87.94;99503.28;4952662;28;20039;-92
2021/12/10 07:36:42;;;;;;;3.45;0.60;;;;;;;1.67;87.80;99509.22;4953263;28;20101;-91
2021/12/10 07:39:09;;;;;;;3.70;1.02;;;;;;;1.68;87.81;99513.56;4953519;28;20038;-91
2021/12/10 07:41:40;;;;;;;5.85;0.60;;;;;;;1.65;87.71;99511.47;4974017;28;20133;-91
2021/12/10 07:44:09;;;;;;;1.65;0.80;;;;;;;1.64;88.13;99526.22;4969785;28;20038;-91
2021/12/10 07:46:36;;;;;;;3.47;0.40;;;;;;;1.63;88.15;99515.63;4972501;28;20038;-92
2021/12/10 07:49:07;;;;;;;4.57;0.45;;;;;;;1.63;88.05;99532.00;4973571;28;20038;-91
2021/12/10 07:51:34;;;;;;;4.50;0.65;;;;;;;1.63;88.02;99510.16;4972877;28;20054;-91
2021/12/10 07:54:01;;;;;;;4.82;0.70;;;;;;;1.63;88.13;99523.81;4970217;28;20486;-93
2021/12/10 07:56:30;;;;;;;4.60;1.10;;;;;;;1.63;88.33;99510.97;4973007;28;20508;-91
2021/12/10 07:58:58;;;;;;;7.60;0.90;;;;;;;1.63;88.06;99516.44;4971942;28;20679;-92
2021/12/10 08:01:28;;;;;;;6.38;0.90;;;;;;;1.65;87.88;99514.19;4974086;28;20045;-90
2021/12/10 08:03:58;;;;;;;1.65;0.80;;;;;;;1.65;87.97;99537.94;4965164;28;20471;-93
2021/12/10 08:06:27;;;;;;;1.67;0.88;;;;;;;1.63;87.92;99535.53;4976924;28;20081;-92
2021/12/10 08:08:54;;;;;;;5.82;1.25;;;;;;;1.64;87.79;99548.03;4974948;28;20054;-92
2021/12/10 08:11:22;;;;;;;4.20;1.08;;;;;;;1.65;88.13;99559.75;4986819;28;20038;-93
2021/12/10 08:13:49;;;;;;;3.45;0.95;;;;;;;1.64;88.02;99556.22;4957729;28;20046;-91
2021/12/10 08:16:17;;;;;;;10.68;2.33;;;;;;;1.63;88.25;99565.53;4973720;28;20058;-92
2021/12/10 08:18:45;;;;;;;4.68;1.00;;;;;;;1.63;88.41;99565.53;4976285;28;20046;-93
2021/12/10 08:21:12;;;;;;;8.77;1.08;;;;;;;1.66;88.18;99578.56;4974027;28;20034;-90
2021/12/10 08:23:39;;;;;;;6.47;0.93;;;;;;;1.65;88.36;99579.66;4984754;28;20031;-93
2021/12/10 08:26:08;;;;;;;6.93;1.05;;;;;;;1.65;88.18;99582.38;4972919;28;20050;-91
2021/12/10 08:28:35;;;;;;;2.40;1.02;;;;;;;1.67;88.30;99596.50;4985079;28;20043;-91
2021/12/10 08:31:04;;;;;;;7.07;1.60;;;;;;;1.68;88.31;99600.03;4969227;28;20066;-94
2021/12/10 08:33:32;;;;;;;6.78;1.00;;;;;;;1.68;88.07;99600.03;4984809;28;20046;-93
2021/12/10 08:36:04;;;;;;;5.40;0.90;;;;;;;1.69;88.45;99607.94;4982451;28;20494;-92
2021/12/10 08:38:35;;;;;;;2.53;0.88;;;;;;;1.70;88.05;99614.97;4966996;28;20049;-92
2021/12/10 08:41:07;;;;;;;2.25;1.25;;;;;;;1.72;88.16;99609.22;4957272;28;20050;-91
2021/12/10 08:43:35;;;;;;;6.13;0.95;;;;;;;1.71;88.03;99622.06;4954632;28;20042;-91
2021/12/10 08:46:04;;;;;;;2.92;0.80;;;;;;;1.71;88.17;99610.34;4974870;28;20050;-91
2021/12/10 08:48:33;;;;;;;6.03;1.08;;;;;;;1.72;88.01;99611.97;4958290;28;20054;-92
2021/12/10 08:51:06;;;;;;;4.97;0.82;;;;;;;1.72;87.95;99615.47;4987651;28;20046;-92
2021/12/10 08:53:33;;;;;;;3.33;0.77;;;;;;;1.74;87.97;99628.81;4958173;28;21990;-91
2021/12/10 08:56:00;;;;;;;3.97;0.85;;;;;;;1.75;87.85;99623.03;4966059;28;20043;-93
2021/12/10 08:58:28;;;;;;;6.07;1.17;;;;;;;1.76;88.03;99623.84;4960536;28;20050;-95
2021/12/10 09:01:12;;;;;;;4.38;0.82;;;;;;;1.76;88.18;99632.84;4969871;28;20501;-91
2021/12/10 09:03:43;;;;;;;4.78;0.75;;;;;;;1.78;88.02;99637.97;4980545;28;20060;-91
2021/12/10 09:06:11;;;;;;;5.22;1.17;;;;;;;1.78;88.01;99649.69;4987526;28;20030;-92
2021/12/10 09:08:39;;;;;;;5.18;1.00;;;;;;;1.80;87.83;99650.16;4967286;28;20042;-90
2021/12/10 09:11:09;;;;;;;6.65;1.38;;;;;;;1.81;88.04;99640.06;4970087;28;20057;-92
2021/12/10 09:13:36;;;;;;;3.65;1.00;;;;;;;1.82;87.91;99647.16;4966891;28;20490;-91
2021/12/10 09:16:08;;;;;;;5.97;1.17;;;;;;;1.84;87.88;99651.16;4970828;28;20050;-91
2021/12/10 09:18:39;;;;;;;3.85;0.93;;;;;;;1.87;88.29;99646.19;4957241;28;20045;-94
2021/12/10 09:21:08;;;;;;;10.93;1.60;;;;;;;1.88;88.35;99648.59;4988619;28;20038;-88
2021/12/10 09:23:36;;;;;;;8.65;1.40;;;;;;;1.92;88.10;99648.78;4969896;28;21307;-89
2021/12/10 09:26:09;;;;;;;8.20;1.27;;;;;;;1.93;87.87;99644.94;4967500;28;20475;-88
2021/12/10 09:28:37;;;;;;;7.97;1.88;;;;;;;1.95;87.73;99659.06;4971056;28;20133;-88
2021/12/10 09:31:07;;;;;;;7.35;3.05;;;;;;;1.96;88.28;99660.69;4972006;28;20125;-89
2021/12/10 09:33:34;;;;;;;3.10;2.25;;;;;;;1.96;88.17;99671.63;4973305;28;20039;-89
2021/12/10 09:36:01;;;;;;;6.05;1.60;;;;;;;1.97;88.35;99682.19;4972477;28;20047;-89
2021/12/10 09:38:28;;;;;;;8.70;1.73;;;;;;;2.02;88.11;99673.06;4985514;28;20125;-90
2021/12/10 09:41:00;;;;;;;10.23;1.35;;;;;;;2.05;88.33;99680.63;4969819;28;20116;-89
2021/12/10 09:43:29;;;;;;;5.88;1.60;;;;;;;2.06;88.42;99683.06;4984846;28;20478;-89
2021/12/10 09:45:56;;;;;;;7.60;1.33;;;;;;;2.07;88.38;99683.84;4982092;28;20063;-89
2021/12/10 09:48:23;;;;;;;4.57;1.85;;;;;;;2.13;88.24;99693.50;4983441;28;20038;-92
2021/12/10 09:50:56;;;;;;;9.23;1.38;;;;;;;2.17;88.29;99710.88;4982943;28;20038;-86
2021/12/10 09:53:26;;;;;;;7.03;1.30;;;;;;;2.25;88.62;99716.38;4981737;28;20050;-87
2021/12/10 09:55:54;;;;;;;5.47;1.17;;;;;;;2.31;88.52;99719.75;4970920;28;20045;-86
2021/12/10 09:58:21;;;;;;;7.70;2.90;;;;;;;2.34;88.39;99721.88;4967004;28;20171;-86
2021/12/10 10:00:53;;;;;;;9.27;1.95;;;;;;;2.34;88.07;99710.94;4984237;28;20034;-86
2021/12/10 10:03:26;;;;;;;12.20;2.08;;;;;;;2.35;88.06;99720.75;4983192;28;20037;-86
2021/12/10 10:05:54;;;;;;;5.32;1.60;;;;;;;2.37;88.10;99726.69;4981026;28;20501;-89
2021/12/10 10:08:25;;;;;;;11.38;2.47;;;;;;;2.38;87.80;99717.41;4971565;28;20039;-86
2021/12/10 10:11:01;;;;;;;11.82;2.22;;;;;;;2.40;87.97;99731.53;4969679;28;20143;-86
2021/12/10 10:13:32;;;;;;;10.10;1.77;;;;;;;2.42;88.02;99732.84;4968131;28;20395;-87
2021/12/10 10:16:00;;;;;;;7.63;2.00;;;;;;;2.46;88.02;99738.47;4951958;28;20165;-86
2021/12/10 10:18:29;;;;;;;9.98;1.58;;;;;;;2.46;88.00;99738.47;4969013;28;20038;-87
2021/12/10 10:21:03;;;;;;;9.75;2.25;;;;;;;2.49;87.85;99743.28;4976060;28;20073;-86
2021/12/10 10:23:30;;;;;;;14.02;2.00;;;;;;;2.54;87.76;99743.16;4967497;28;20050;-89
2021/12/10 10:26:00;;;;;;;7.65;1.85;;;;;;;2.57;87.95;99755.38;4958483;28;20071;-88
2021/12/10 10:28:27;;;;;;;7.47;1.45;;;;;;;2.58;87.90;99748.78;4946421;28;20047;-87
2021/12/10 10:31:01;;;;;;;18.40;3.60;;;;;;;2.59;87.61;99745.75;4981784;28;20050;-87
2021/12/10 10:33:34;;;;;;;7.22;1.65;;;;;;;2.63;87.44;99763.09;4982557;28;20042;-87
2021/12/10 10:36:08;;;;;;;7.97;1.70;;;;;;;2.66;87.62;99759.75;4969900;28;20061;-88
2021/12/10 10:38:35;;;;;;;8.20;1.77;;;;;;;2.69;87.22;99756.38;4984107;28;20039;-88
2021/12/10 10:41:08;;;;;;;10.23;2.55;;;;;;;2.73;87.62;99768.28;4968968;28;20048;-84
2021/12/10 10:43:37;;;;;;;6.75;2.17;;;;;;;2.77;87.27;99777.47;4982861;28;20629;-86
2021/12/10 10:46:05;;;;;;;4.25;1.50;;;;;;;2.80;86.99;99778.75;4979788;28;20046;-84
2021/12/10 10:48:32;;;;;;;8.93;1.70;;;;;;;2.82;86.89;99788.25;4942930;28;20038;-85
2021/12/10 10:51:07;;;;;;;9.38;1.67;;;;;;;2.86;86.86;99788.44;4968901;28;20042;-85
2021/12/10 10:53:43;;;;;;;3.67;2.08;;;;;;;2.91;87.00;99785.56;4981100;28;20515;-84
2021/12/10 10:56:31;;;;;;;5.38;1.55;;;;;;;2.95;86.77;99794.72;4977562;28;20394;-84
2021/12/10 10:59:02;;;;;;;3.33;1.40;;;;;;;2.97;86.81;99790.53;4970390;28;20133;-85
2021/12/10 11:01:32;;;;;;;6.75;1.25;;;;;;;3.03;87.14;99813.06;4948810;28;20070;-84
2021/12/10 11:04:27;;;;;;;13.35;1.73;;;;;;;3.06;86.78;99817.91;4953078;28;20471;-87
2021/12/10 11:07:07;;;;;;;3.40;1.25;;;;;;;3.10;86.57;99818.09;4947154;28;20046;-85
2021/12/10 11:09:41;;;;;;;7.22;2.35;;;;;;;3.14;86.90;99832.72;4959766;28;20117;-86
2021/12/10 11:12:14;;;;;;;7.13;1.38;;;;;;;3.18;86.40;99837.22;4949039;28;20046;-87
2021/12/10 11:14:51;;;;;;;5.28;1.55;;;;;;;3.22;86.45;99831.94;4947804;28;20050;-87
2021/12/10 11:17:27;;;;;;;6.03;1.63;;;;;;;3.25;86.67;99834.03;4948617;28;20125;-87
2021/12/10 11:20:10;;;;;;;4.28;1.50;;;;;;;3.29;86.76;99827.59;4961033;28;20047;-86
2021/12/10 11:22:46;;;;;;;6.10;1.38;;;;;;;3.32;86.51;99837.09;4938123;28;20582;-87
2021/12/10 11:25:21;;;;;;;5.63;1.00;;;;;;;3.37;86.24;99843.22;4949494;28;20034;-87
2021/12/10 11:27:49;;;;;;;10.55;1.90;;;;;;;3.41;86.21;99843.41;4958017;28;20857;-86
2021/12/10 11:30:23;;;;;;;6.63;1.30;;;;;;;3.46;86.33;99848.72;4963303;28;20049;-87
2021/12/10 11:33:03;;;;;;;9.63;2.47;;;;;;;3.48;86.11;99839.06;4950644;28;20395;-88
2021/12/10 11:35:38;;;;;;;5.63;1.77;;;;;;;3.54;86.16;99853.41;4947691;28;20554;-88
2021/12/10 11:38:20;;;;;;;12.52;1.95;;;;;;;3.55;86.08;99828.44;4950436;28;20051;-86
2021/12/10 11:40:48;;;;;;;12.48;1.38;;;;;;;3.60;85.98;99841.19;4948817;28;20061;-86
2021/12/10 11:48:54;;;;;;;10.43;1.45;;;;;;;3.67;85.89;99819.59;4966396;28;20043;-88
2021/12/10 11:51:27;;;;;;;5.20;1.50;;;;;;;3.71;85.71;99826.03;4950110;28;20049;-88
2021/12/10 11:53:59;;;;;;;11.65;1.88;;;;;;;3.75;85.70;99832.47;4952210;28;20097;-88
2021/12/10 11:56:43;;;;;;;6.13;1.38;;;;;;;3.78;86.06;99837.31;4933850;28;20138;-89
2021/12/10 11:59:21;;;;;;;14.90;2.80;;;;;;;3.82;85.90;99849.22;4951354;28;20057;-87
2021/12/10 12:01:53;;;;;;;8.70;1.67;;;;;;;3.86;85.50;99850.19;4946331;28;20364;-88
2021/12/10 12:04:43;;;;;;;;;;;;;;;3.86;85.68;99850.19;4966055;28;20049;-88
2021/12/10 12:07:16;;;;;;;10.13;2.15;;;;;;;3.91;85.65;99851.97;4937336;28;20017;-88
2021/12/10 12:09:55;;;;;;;6.53;1.27;;;;;;;3.93;85.22;99861.47;4969380;28;20073;-89
2021/12/10 12:12:29;;;;;;;8.88;1.90;;;;;;;3.97;85.40;99858.91;4963848;28;20198;-88
2021/12/10 12:15:34;;;;;;;5.82;1.83;;;;;;;4.00;85.00;99866.44;4964165;28;20049;-88